<?xml version="1.0" encoding="UTF-8" standalone="no" ?>
<gpx xmlns="http://www.topografix.com/GPX/1/1" xmlns:xsi="http://www.w3.org/2001/XMLSchema-instance" xsi:schemaLocation="http://www.topografix.com/GPX/1/1 http://www.topografix.com/GPX/1/1/gpx.xsd" version="1.1" creator="VisuGPX - https://www.visugpx.com">
  <metadata>
    <name>Chaussinand - Molines</name>
    <desc><![CDATA[Aller retour vers Molines (Commune de Dornas) au départ de Chaussinand (Commune d\'Accons)]]></desc>
  </metadata>
  <trk>
    <name><![CDATA[Chaussinand-Molines]]></name>
    <trkseg>
      <trkpt lat="44.88356" lon="4.37758">
        <ele>648.528</ele>
        <time>2015-07-30T15:23:51Z</time>
      </trkpt>
      <trkpt lat="44.88339" lon="4.3776">
        <ele>649.834</ele>
        <time>2015-07-30T15:23:56Z</time>
      </trkpt>
      <trkpt lat="44.88333" lon="4.3779">
        <ele>650.238</ele>
        <time>2015-07-30T15:24:02Z</time>
      </trkpt>
      <trkpt lat="44.88328" lon="4.37812">
        <ele>650.407</ele>
        <time>2015-07-30T15:24:05Z</time>
      </trkpt>
      <trkpt lat="44.88324" lon="4.37834">
        <ele>649.995</ele>
        <time>2015-07-30T15:24:08Z</time>
      </trkpt>
      <trkpt lat="44.88311" lon="4.37884">
        <ele>649.945</ele>
        <time>2015-07-30T15:24:15Z</time>
      </trkpt>
      <trkpt lat="44.88294" lon="4.37925">
        <ele>650.716</ele>
        <time>2015-07-30T15:24:22Z</time>
      </trkpt>
      <trkpt lat="44.88263" lon="4.37985">
        <ele>652.257</ele>
        <time>2015-07-30T15:24:36Z</time>
      </trkpt>
      <trkpt lat="44.88224" lon="4.3803">
        <ele>654.069</ele>
        <time>2015-07-30T15:24:50Z</time>
      </trkpt>
      <trkpt lat="44.88217" lon="4.38044">
        <ele>654.632</ele>
        <time>2015-07-30T15:24:54Z</time>
      </trkpt>
      <trkpt lat="44.8822" lon="4.38083">
        <ele>657.042</ele>
        <time>2015-07-30T15:25:05Z</time>
      </trkpt>
      <trkpt lat="44.88238" lon="4.38143">
        <ele>658.271</ele>
        <time>2015-07-30T15:25:20Z</time>
      </trkpt>
      <trkpt lat="44.88239" lon="4.38156">
        <ele>658.596</ele>
        <time>2015-07-30T15:25:23Z</time>
      </trkpt>
      <trkpt lat="44.88229" lon="4.38212">
        <ele>661.299</ele>
        <time>2015-07-30T15:25:38Z</time>
      </trkpt>
      <trkpt lat="44.8821" lon="4.38273">
        <ele>664.361</ele>
        <time>2015-07-30T15:25:55Z</time>
      </trkpt>
      <trkpt lat="44.88194" lon="4.38302">
        <ele>665.439</ele>
        <time>2015-07-30T15:26:05Z</time>
      </trkpt>
      <trkpt lat="44.8818" lon="4.38355">
        <ele>668.48</ele>
        <time>2015-07-30T15:26:20Z</time>
      </trkpt>
      <trkpt lat="44.88161" lon="4.3838">
        <ele>670.478</ele>
        <time>2015-07-30T15:26:31Z</time>
      </trkpt>
      <trkpt lat="44.88135" lon="4.38408">
        <ele>672.838</ele>
        <time>2015-07-30T15:26:44Z</time>
      </trkpt>
      <trkpt lat="44.88129" lon="4.38416">
        <ele>673.221</ele>
        <time>2015-07-30T15:26:48Z</time>
      </trkpt>
      <trkpt lat="44.88113" lon="4.3844">
        <ele>675.763</ele>
        <time>2015-07-30T15:27:00Z</time>
      </trkpt>
      <trkpt lat="44.88089" lon="4.38454">
        <ele>677.229</ele>
        <time>2015-07-30T15:27:11Z</time>
      </trkpt>
      <trkpt lat="44.88085" lon="4.38457">
        <ele>677.781</ele>
        <time>2015-07-30T15:27:13Z</time>
      </trkpt>
      <trkpt lat="44.88041" lon="4.38453">
        <ele>680.381</ele>
        <time>2015-07-30T15:27:31Z</time>
      </trkpt>
      <trkpt lat="44.88004" lon="4.38459">
        <ele>683.127</ele>
        <time>2015-07-30T15:27:47Z</time>
      </trkpt>
      <trkpt lat="44.87984" lon="4.38498">
        <ele>685.423</ele>
        <time>2015-07-30T15:28:02Z</time>
      </trkpt>
      <trkpt lat="44.8795" lon="4.38506">
        <ele>687.516</ele>
        <time>2015-07-30T15:28:17Z</time>
      </trkpt>
      <trkpt lat="44.87921" lon="4.38519">
        <ele>689.891</ele>
        <time>2015-07-30T15:28:32Z</time>
      </trkpt>
      <trkpt lat="44.8792" lon="4.38532">
        <ele>690.443</ele>
        <time>2015-07-30T15:28:37Z</time>
      </trkpt>
      <trkpt lat="44.87927" lon="4.38547">
        <ele>690.676</ele>
        <time>2015-07-30T15:28:41Z</time>
      </trkpt>
      <trkpt lat="44.8797" lon="4.38596">
        <ele>689.587</ele>
        <time>2015-07-30T15:28:58Z</time>
      </trkpt>
      <trkpt lat="44.87991" lon="4.38608">
        <ele>688.858</ele>
        <time>2015-07-30T15:29:04Z</time>
      </trkpt>
      <trkpt lat="44.88026" lon="4.38634">
        <ele>685.354</ele>
        <time>2015-07-30T15:29:12Z</time>
      </trkpt>
      <trkpt lat="44.88046" lon="4.38639">
        <ele>684.665</ele>
        <time>2015-07-30T15:29:16Z</time>
      </trkpt>
      <trkpt lat="44.88076" lon="4.38651">
        <ele>682.715</ele>
        <time>2015-07-30T15:29:22Z</time>
      </trkpt>
      <trkpt lat="44.88098" lon="4.38651">
        <ele>682.099</ele>
        <time>2015-07-30T15:29:27Z</time>
      </trkpt>
      <trkpt lat="44.88115" lon="4.3866">
        <ele>683.684</ele>
        <time>2015-07-30T15:29:33Z</time>
      </trkpt>
      <trkpt lat="44.88135" lon="4.38668">
        <ele>686.081</ele>
        <time>2015-07-30T15:29:42Z</time>
      </trkpt>
      <trkpt lat="44.88138" lon="4.38679">
        <ele>687.257</ele>
        <time>2015-07-30T15:29:46Z</time>
      </trkpt>
      <trkpt lat="44.88152" lon="4.38726">
        <ele>689.791</ele>
        <time>2015-07-30T15:30:01Z</time>
      </trkpt>
      <trkpt lat="44.88178" lon="4.38762">
        <ele>691.622</ele>
        <time>2015-07-30T15:30:13Z</time>
      </trkpt>
      <trkpt lat="44.88166" lon="4.38769">
        <ele>693.96</ele>
        <time>2015-07-30T15:30:21Z</time>
      </trkpt>
      <trkpt lat="44.88164" lon="4.38766">
        <ele>693.96</ele>
        <time>2015-07-30T15:30:22Z</time>
      </trkpt>
      <trkpt lat="44.88126" lon="4.38739">
        <ele>697.258</ele>
        <time>2015-07-30T15:30:38Z</time>
      </trkpt>
      <trkpt lat="44.88099" lon="4.38732">
        <ele>699.985</ele>
        <time>2015-07-30T15:30:52Z</time>
      </trkpt>
      <trkpt lat="44.88068" lon="4.38723">
        <ele>703.364</ele>
        <time>2015-07-30T15:31:07Z</time>
      </trkpt>
      <trkpt lat="44.8804" lon="4.38732">
        <ele>706.015</ele>
        <time>2015-07-30T15:31:24Z</time>
      </trkpt>
      <trkpt lat="44.88018" lon="4.38727">
        <ele>708.424</ele>
        <time>2015-07-30T15:31:37Z</time>
      </trkpt>
      <trkpt lat="44.88009" lon="4.38726">
        <ele>709.228</ele>
        <time>2015-07-30T15:31:42Z</time>
      </trkpt>
      <trkpt lat="44.88005" lon="4.38725">
        <ele>709.764</ele>
        <time>2015-07-30T15:31:45Z</time>
      </trkpt>
      <trkpt lat="44.87979" lon="4.3872">
        <ele>711.999</ele>
        <time>2015-07-30T15:31:58Z</time>
      </trkpt>
      <trkpt lat="44.87967" lon="4.38716">
        <ele>713.923</ele>
        <time>2015-07-30T15:32:06Z</time>
      </trkpt>
      <trkpt lat="44.87953" lon="4.38694">
        <ele>715.154</ele>
        <time>2015-07-30T15:32:15Z</time>
      </trkpt>
      <trkpt lat="44.87928" lon="4.38675">
        <ele>716.103</ele>
        <time>2015-07-30T15:32:27Z</time>
      </trkpt>
      <trkpt lat="44.87895" lon="4.38654">
        <ele>718.243</ele>
        <time>2015-07-30T15:32:42Z</time>
      </trkpt>
      <trkpt lat="44.87866" lon="4.38645">
        <ele>719.728</ele>
        <time>2015-07-30T15:32:56Z</time>
      </trkpt>
      <trkpt lat="44.87856" lon="4.38644">
        <ele>721.047</ele>
        <time>2015-07-30T15:33:04Z</time>
      </trkpt>
      <trkpt lat="44.87851" lon="4.38642">
        <ele>721.525</ele>
        <time>2015-07-30T15:33:07Z</time>
      </trkpt>
      <trkpt lat="44.87828" lon="4.38634">
        <ele>724.675</ele>
        <time>2015-07-30T15:33:20Z</time>
      </trkpt>
      <trkpt lat="44.87798" lon="4.38636">
        <ele>726.775</ele>
        <time>2015-07-30T15:33:31Z</time>
      </trkpt>
      <trkpt lat="44.87794" lon="4.38637">
        <ele>727.182</ele>
        <time>2015-07-30T15:33:33Z</time>
      </trkpt>
      <trkpt lat="44.8777" lon="4.38633">
        <ele>729.177</ele>
        <time>2015-07-30T15:33:47Z</time>
      </trkpt>
      <trkpt lat="44.87769" lon="4.3863">
        <ele>729.177</ele>
        <time>2015-07-30T15:33:48Z</time>
      </trkpt>
      <trkpt lat="44.87767" lon="4.38585">
        <ele>731.317</ele>
        <time>2015-07-30T15:34:03Z</time>
      </trkpt>
      <trkpt lat="44.87749" lon="4.38554">
        <ele>733.751</ele>
        <time>2015-07-30T15:34:17Z</time>
      </trkpt>
      <trkpt lat="44.87727" lon="4.38528">
        <ele>736.2</ele>
        <time>2015-07-30T15:34:31Z</time>
      </trkpt>
      <trkpt lat="44.87714" lon="4.38491">
        <ele>738.814</ele>
        <time>2015-07-30T15:34:45Z</time>
      </trkpt>
      <trkpt lat="44.87714" lon="4.38482">
        <ele>739.125</ele>
        <time>2015-07-30T15:34:48Z</time>
      </trkpt>
      <trkpt lat="44.87725" lon="4.38445">
        <ele>740.883</ele>
        <time>2015-07-30T15:35:02Z</time>
      </trkpt>
      <trkpt lat="44.87718" lon="4.38428">
        <ele>743.662</ele>
        <time>2015-07-30T15:35:13Z</time>
      </trkpt>
      <trkpt lat="44.8772" lon="4.38421">
        <ele>743.974</ele>
        <time>2015-07-30T15:35:17Z</time>
      </trkpt>
      <trkpt lat="44.87724" lon="4.38416">
        <ele>744.405</ele>
        <time>2015-07-30T15:35:22Z</time>
      </trkpt>
      <trkpt lat="44.87726" lon="4.38413">
        <ele>744.133</ele>
        <time>2015-07-30T15:35:24Z</time>
      </trkpt>
      <trkpt lat="44.87733" lon="4.38413">
        <ele>745.105</ele>
        <time>2015-07-30T15:35:28Z</time>
      </trkpt>
      <trkpt lat="44.87761" lon="4.38407">
        <ele>746.667</ele>
        <time>2015-07-30T15:35:41Z</time>
      </trkpt>
      <trkpt lat="44.87768" lon="4.38404">
        <ele>747.081</ele>
        <time>2015-07-30T15:35:43Z</time>
      </trkpt>
      <trkpt lat="44.87777" lon="4.38402">
        <ele>746.786</ele>
        <time>2015-07-30T15:35:46Z</time>
      </trkpt>
      <trkpt lat="44.8779" lon="4.38391">
        <ele>749.407</ele>
        <time>2015-07-30T15:35:55Z</time>
      </trkpt>
      <trkpt lat="44.87798" lon="4.38384">
        <ele>749.629</ele>
        <time>2015-07-30T15:36:00Z</time>
      </trkpt>
      <trkpt lat="44.87818" lon="4.38342">
        <ele>752.408</ele>
        <time>2015-07-30T15:36:15Z</time>
      </trkpt>
      <trkpt lat="44.87819" lon="4.38341">
        <ele>752.739</ele>
        <time>2015-07-30T15:36:16Z</time>
      </trkpt>
      <trkpt lat="44.87819" lon="4.38333">
        <ele>753.169</ele>
        <time>2015-07-30T15:36:19Z</time>
      </trkpt>
      <trkpt lat="44.87821" lon="4.38328">
        <ele>753.629</ele>
        <time>2015-07-30T15:36:22Z</time>
      </trkpt>
      <trkpt lat="44.87821" lon="4.38322">
        <ele>754.3</ele>
        <time>2015-07-30T15:36:25Z</time>
      </trkpt>
      <trkpt lat="44.87817" lon="4.38281">
        <ele>756.85</ele>
        <time>2015-07-30T15:36:41Z</time>
      </trkpt>
      <trkpt lat="44.87822" lon="4.38238">
        <ele>759.395</ele>
        <time>2015-07-30T15:36:55Z</time>
      </trkpt>
      <trkpt lat="44.8782" lon="4.38189">
        <ele>762.13</ele>
        <time>2015-07-30T15:37:10Z</time>
      </trkpt>
      <trkpt lat="44.87819" lon="4.38153">
        <ele>763.599</ele>
        <time>2015-07-30T15:37:21Z</time>
      </trkpt>
      <trkpt lat="44.87819" lon="4.3812">
        <ele>765.242</ele>
        <time>2015-07-30T15:37:31Z</time>
      </trkpt>
      <trkpt lat="44.87814" lon="4.38114">
        <ele>765.76</ele>
        <time>2015-07-30T15:37:33Z</time>
      </trkpt>
      <trkpt lat="44.8781" lon="4.38108">
        <ele>766.664</ele>
        <time>2015-07-30T15:37:37Z</time>
      </trkpt>
      <trkpt lat="44.87803" lon="4.38107">
        <ele>767.739</ele>
        <time>2015-07-30T15:37:43Z</time>
      </trkpt>
      <trkpt lat="44.87786" lon="4.38111">
        <ele>768.688</ele>
        <time>2015-07-30T15:37:52Z</time>
      </trkpt>
      <trkpt lat="44.87777" lon="4.38104">
        <ele>769.993</ele>
        <time>2015-07-30T15:37:56Z</time>
      </trkpt>
      <trkpt lat="44.87753" lon="4.38102">
        <ele>772.783</ele>
        <time>2015-07-30T15:38:10Z</time>
      </trkpt>
      <trkpt lat="44.87748" lon="4.38096">
        <ele>773.798</ele>
        <time>2015-07-30T15:38:15Z</time>
      </trkpt>
      <trkpt lat="44.87745" lon="4.38088">
        <ele>775.048</ele>
        <time>2015-07-30T15:38:21Z</time>
      </trkpt>
      <trkpt lat="44.8773" lon="4.3805">
        <ele>777.521</ele>
        <time>2015-07-30T15:38:37Z</time>
      </trkpt>
      <trkpt lat="44.87724" lon="4.38016">
        <ele>779.138</ele>
        <time>2015-07-30T15:38:53Z</time>
      </trkpt>
      <trkpt lat="44.87715" lon="4.37991">
        <ele>781.477</ele>
        <time>2015-07-30T15:40:40Z</time>
      </trkpt>
      <trkpt lat="44.87709" lon="4.37981">
        <ele>782.304</ele>
        <time>2015-07-30T15:40:45Z</time>
      </trkpt>
      <trkpt lat="44.87691" lon="4.37967">
        <ele>783.453</ele>
        <time>2015-07-30T15:40:52Z</time>
      </trkpt>
      <trkpt lat="44.8767" lon="4.37962">
        <ele>785.046</ele>
        <time>2015-07-30T15:41:02Z</time>
      </trkpt>
      <trkpt lat="44.87647" lon="4.37959">
        <ele>787.657</ele>
        <time>2015-07-30T15:41:16Z</time>
      </trkpt>
      <trkpt lat="44.87642" lon="4.37955">
        <ele>788.735</ele>
        <time>2015-07-30T15:41:23Z</time>
      </trkpt>
      <trkpt lat="44.8762" lon="4.37935">
        <ele>790.888</ele>
        <time>2015-07-30T15:41:36Z</time>
      </trkpt>
      <trkpt lat="44.87617" lon="4.37931">
        <ele>791.243</ele>
        <time>2015-07-30T15:41:39Z</time>
      </trkpt>
      <trkpt lat="44.87603" lon="4.37903">
        <ele>793.076</ele>
        <time>2015-07-30T15:41:50Z</time>
      </trkpt>
      <trkpt lat="44.87599" lon="4.37895">
        <ele>793.681</ele>
        <time>2015-07-30T15:41:54Z</time>
      </trkpt>
      <trkpt lat="44.87593" lon="4.37885">
        <ele>793.515</ele>
        <time>2015-07-30T15:41:59Z</time>
      </trkpt>
      <trkpt lat="44.87587" lon="4.37859">
        <ele>795.803</ele>
        <time>2015-07-30T15:42:13Z</time>
      </trkpt>
      <trkpt lat="44.87588" lon="4.37852">
        <ele>796.62</ele>
        <time>2015-07-30T15:42:16Z</time>
      </trkpt>
      <trkpt lat="44.87601" lon="4.37799">
        <ele>799.46</ele>
        <time>2015-07-30T15:42:33Z</time>
      </trkpt>
      <trkpt lat="44.87603" lon="4.37766">
        <ele>801.098</ele>
        <time>2015-07-30T15:42:41Z</time>
      </trkpt>
      <trkpt lat="44.87601" lon="4.37767">
        <ele>802.203</ele>
        <time>2015-07-30T15:42:46Z</time>
      </trkpt>
      <trkpt lat="44.87578" lon="4.37796">
        <ele>805.392</ele>
        <time>2015-07-30T15:43:03Z</time>
      </trkpt>
      <trkpt lat="44.87577" lon="4.378">
        <ele>805.551</ele>
        <time>2015-07-30T15:43:05Z</time>
      </trkpt>
      <trkpt lat="44.87567" lon="4.3783">
        <ele>807.001</ele>
        <time>2015-07-30T15:43:18Z</time>
      </trkpt>
      <trkpt lat="44.87563" lon="4.3786">
        <ele>808.529</ele>
        <time>2015-07-30T15:43:29Z</time>
      </trkpt>
      <trkpt lat="44.87554" lon="4.37872">
        <ele>808.888</ele>
        <time>2015-07-30T15:43:36Z</time>
      </trkpt>
      <trkpt lat="44.87549" lon="4.37878">
        <ele>809.496</ele>
        <time>2015-07-30T15:43:39Z</time>
      </trkpt>
      <trkpt lat="44.87548" lon="4.3788">
        <ele>809.8</ele>
        <time>2015-07-30T15:43:41Z</time>
      </trkpt>
      <trkpt lat="44.8755" lon="4.37895">
        <ele>811.086</ele>
        <time>2015-07-30T15:43:47Z</time>
      </trkpt>
      <trkpt lat="44.87547" lon="4.37924">
        <ele>812.791</ele>
        <time>2015-07-30T15:43:58Z</time>
      </trkpt>
      <trkpt lat="44.87561" lon="4.37967">
        <ele>814.091</ele>
        <time>2015-07-30T15:44:11Z</time>
      </trkpt>
      <trkpt lat="44.87585" lon="4.38008">
        <ele>815.895</ele>
        <time>2015-07-30T15:44:24Z</time>
      </trkpt>
      <trkpt lat="44.87588" lon="4.38055">
        <ele>817.779</ele>
        <time>2015-07-30T15:44:36Z</time>
      </trkpt>
      <trkpt lat="44.87572" lon="4.38103">
        <ele>819.587</ele>
        <time>2015-07-30T15:44:48Z</time>
      </trkpt>
      <trkpt lat="44.8755" lon="4.38142">
        <ele>822.654</ele>
        <time>2015-07-30T15:45:03Z</time>
      </trkpt>
      <trkpt lat="44.87517" lon="4.38174">
        <ele>824.671</ele>
        <time>2015-07-30T15:45:19Z</time>
      </trkpt>
      <trkpt lat="44.87504" lon="4.38185">
        <ele>826.026</ele>
        <time>2015-07-30T15:45:26Z</time>
      </trkpt>
      <trkpt lat="44.87487" lon="4.38214">
        <ele>828.195</ele>
        <time>2015-07-30T15:45:38Z</time>
      </trkpt>
      <trkpt lat="44.87486" lon="4.38216">
        <ele>828.195</ele>
        <time>2015-07-30T15:45:39Z</time>
      </trkpt>
      <trkpt lat="44.87484" lon="4.38228">
        <ele>829.556</ele>
        <time>2015-07-30T15:45:43Z</time>
      </trkpt>
      <trkpt lat="44.87479" lon="4.38241">
        <ele>829.881</ele>
        <time>2015-07-30T15:45:47Z</time>
      </trkpt>
      <trkpt lat="44.87476" lon="4.38259">
        <ele>830.669</ele>
        <time>2015-07-30T15:45:53Z</time>
      </trkpt>
      <trkpt lat="44.87479" lon="4.38271">
        <ele>831.638</ele>
        <time>2015-07-30T15:45:57Z</time>
      </trkpt>
      <trkpt lat="44.87478" lon="4.38283">
        <ele>831.963</ele>
        <time>2015-07-30T15:46:09Z</time>
      </trkpt>
      <trkpt lat="44.87476" lon="4.38283">
        <ele>833.831</ele>
        <time>2015-07-30T15:50:10Z</time>
      </trkpt>
      <trkpt lat="44.87476" lon="4.38282">
        <ele>833.107</ele>
        <time>2015-07-30T15:50:42Z</time>
      </trkpt>
      <trkpt lat="44.87475" lon="4.38276">
        <ele>833.348</ele>
        <time>2015-07-30T15:50:46Z</time>
      </trkpt>
      <trkpt lat="44.87472" lon="4.38268">
        <ele>833.723</ele>
        <time>2015-07-30T15:50:51Z</time>
      </trkpt>
      <trkpt lat="44.87463" lon="4.38238">
        <ele>836.537</ele>
        <time>2015-07-30T15:51:05Z</time>
      </trkpt>
      <trkpt lat="44.87464" lon="4.38234">
        <ele>836.387</ele>
        <time>2015-07-30T15:51:07Z</time>
      </trkpt>
      <trkpt lat="44.87472" lon="4.38208">
        <ele>837.465</ele>
        <time>2015-07-30T15:51:14Z</time>
      </trkpt>
      <trkpt lat="44.87469" lon="4.38199">
        <ele>838.387</ele>
        <time>2015-07-30T15:51:18Z</time>
      </trkpt>
      <trkpt lat="44.87453" lon="4.38174">
        <ele>840.361</ele>
        <time>2015-07-30T15:51:28Z</time>
      </trkpt>
      <trkpt lat="44.87456" lon="4.38127">
        <ele>842.652</ele>
        <time>2015-07-30T15:51:43Z</time>
      </trkpt>
      <trkpt lat="44.87452" lon="4.38075">
        <ele>844.927</ele>
        <time>2015-07-30T15:51:57Z</time>
      </trkpt>
      <trkpt lat="44.87444" lon="4.38031">
        <ele>846.729</ele>
        <time>2015-07-30T15:52:12Z</time>
      </trkpt>
      <trkpt lat="44.8744" lon="4.38017">
        <ele>848.391</ele>
        <time>2015-07-30T15:52:19Z</time>
      </trkpt>
      <trkpt lat="44.87423" lon="4.37983">
        <ele>849.981</ele>
        <time>2015-07-30T15:52:31Z</time>
      </trkpt>
      <trkpt lat="44.87421" lon="4.37959">
        <ele>851.86</ele>
        <time>2015-07-30T15:52:40Z</time>
      </trkpt>
      <trkpt lat="44.87413" lon="4.37918">
        <ele>853.533</ele>
        <time>2015-07-30T15:52:52Z</time>
      </trkpt>
      <trkpt lat="44.87407" lon="4.37903">
        <ele>854.265</ele>
        <time>2015-07-30T15:52:57Z</time>
      </trkpt>
      <trkpt lat="44.87403" lon="4.37859">
        <ele>857.565</ele>
        <time>2015-07-30T15:53:13Z</time>
      </trkpt>
      <trkpt lat="44.87399" lon="4.37814">
        <ele>860.117</ele>
        <time>2015-07-30T15:53:32Z</time>
      </trkpt>
      <trkpt lat="44.87392" lon="4.37787">
        <ele>862.35</ele>
        <time>2015-07-30T15:53:46Z</time>
      </trkpt>
      <trkpt lat="44.8739" lon="4.37779">
        <ele>863.04</ele>
        <time>2015-07-30T15:53:58Z</time>
      </trkpt>
      <trkpt lat="44.87389" lon="4.37771">
        <ele>864.07</ele>
        <time>2015-07-30T15:54:06Z</time>
      </trkpt>
      <trkpt lat="44.87382" lon="4.37758">
        <ele>866.38</ele>
        <time>2015-07-30T15:54:29Z</time>
      </trkpt>
      <trkpt lat="44.87383" lon="4.37745">
        <ele>868.097</ele>
        <time>2015-07-30T15:55:00Z</time>
      </trkpt>
      <trkpt lat="44.87381" lon="4.3773">
        <ele>869.759</ele>
        <time>2015-07-30T15:55:16Z</time>
      </trkpt>
      <trkpt lat="44.87375" lon="4.3771">
        <ele>870.702</ele>
        <time>2015-07-30T15:55:34Z</time>
      </trkpt>
      <trkpt lat="44.87373" lon="4.37703">
        <ele>871.321</ele>
        <time>2015-07-30T15:55:37Z</time>
      </trkpt>
      <trkpt lat="44.87371" lon="4.37686">
        <ele>873.094</ele>
        <time>2015-07-30T15:55:44Z</time>
      </trkpt>
      <trkpt lat="44.87366" lon="4.37663">
        <ele>875.186</ele>
        <time>2015-07-30T15:55:51Z</time>
      </trkpt>
      <trkpt lat="44.87354" lon="4.37655">
        <ele>876.346</ele>
        <time>2015-07-30T15:55:57Z</time>
      </trkpt>
      <trkpt lat="44.87353" lon="4.37633">
        <ele>879.594</ele>
        <time>2015-07-30T15:56:08Z</time>
      </trkpt>
      <trkpt lat="44.87349" lon="4.37627">
        <ele>880.032</ele>
        <time>2015-07-30T15:56:10Z</time>
      </trkpt>
      <trkpt lat="44.8734" lon="4.37601">
        <ele>881.362</ele>
        <time>2015-07-30T15:56:21Z</time>
      </trkpt>
      <trkpt lat="44.87331" lon="4.37563">
        <ele>882.643</ele>
        <time>2015-07-30T15:56:33Z</time>
      </trkpt>
      <trkpt lat="44.87326" lon="4.3753">
        <ele>883.528</ele>
        <time>2015-07-30T15:56:45Z</time>
      </trkpt>
      <trkpt lat="44.87318" lon="4.37497">
        <ele>884.104</ele>
        <time>2015-07-30T15:56:55Z</time>
      </trkpt>
      <trkpt lat="44.873" lon="4.3746">
        <ele>881.605</ele>
        <time>2015-07-30T15:57:06Z</time>
      </trkpt>
      <trkpt lat="44.87291" lon="4.37453">
        <ele>880.841</ele>
        <time>2015-07-30T15:57:10Z</time>
      </trkpt>
      <trkpt lat="44.87275" lon="4.37446">
        <ele>879.065</ele>
        <time>2015-07-30T15:57:18Z</time>
      </trkpt>
      <trkpt lat="44.87269" lon="4.37443">
        <ele>867.952</ele>
        <time>2015-07-30T15:57:24Z</time>
      </trkpt>
      <trkpt lat="44.87268" lon="4.37443">
        <ele>867.952</ele>
        <time>2015-07-30T15:57:25Z</time>
      </trkpt>
      <trkpt lat="44.87267" lon="4.37441">
        <ele>880.915</ele>
        <time>2015-07-30T15:57:26Z</time>
      </trkpt>
      <trkpt lat="44.87267" lon="4.37441">
        <ele>875.562</ele>
        <time>2015-07-30T15:57:27Z</time>
      </trkpt>
      <trkpt lat="44.87268" lon="4.3744">
        <ele>876.027</ele>
        <time>2015-07-30T15:57:40Z</time>
      </trkpt>
      <trkpt lat="44.87267" lon="4.37443">
        <ele>877.913</ele>
        <time>2015-07-30T15:58:15Z</time>
      </trkpt>
      <trkpt lat="44.87265" lon="4.37441">
        <ele>878.45</ele>
        <time>2015-07-30T15:58:42Z</time>
      </trkpt>
      <trkpt lat="44.87265" lon="4.37438">
        <ele>878.545</ele>
        <time>2015-07-30T15:59:00Z</time>
      </trkpt>
      <trkpt lat="44.8725" lon="4.37436">
        <ele>878.307</ele>
        <time>2015-07-30T15:59:22Z</time>
      </trkpt>
      <trkpt lat="44.87242" lon="4.37432">
        <ele>878.273</ele>
        <time>2015-07-30T15:59:40Z</time>
      </trkpt>
      <trkpt lat="44.87227" lon="4.3743">
        <ele>877.942</ele>
        <time>2015-07-30T15:59:56Z</time>
      </trkpt>
      <trkpt lat="44.87218" lon="4.37429">
        <ele>877.853</ele>
        <time>2015-07-30T16:00:01Z</time>
      </trkpt>
      <trkpt lat="44.87208" lon="4.37435">
        <ele>879.335</ele>
        <time>2015-07-30T16:00:14Z</time>
      </trkpt>
      <trkpt lat="44.872" lon="4.37431">
        <ele>880.059</ele>
        <time>2015-07-30T16:00:30Z</time>
      </trkpt>
      <trkpt lat="44.87181" lon="4.37441">
        <ele>880.093</ele>
        <time>2015-07-30T16:00:44Z</time>
      </trkpt>
      <trkpt lat="44.87174" lon="4.37443">
        <ele>879.422</ele>
        <time>2015-07-30T16:00:56Z</time>
      </trkpt>
      <trkpt lat="44.87165" lon="4.37441">
        <ele>880.059</ele>
        <time>2015-07-30T16:01:06Z</time>
      </trkpt>
      <trkpt lat="44.87137" lon="4.37431">
        <ele>880.389</ele>
        <time>2015-07-30T16:01:19Z</time>
      </trkpt>
      <trkpt lat="44.87106" lon="4.37425">
        <ele>881.882</ele>
        <time>2015-07-30T16:01:33Z</time>
      </trkpt>
      <trkpt lat="44.87095" lon="4.37433">
        <ele>882.3</ele>
        <time>2015-07-30T16:01:47Z</time>
      </trkpt>
      <trkpt lat="44.87084" lon="4.37439">
        <ele>881.095</ele>
        <time>2015-07-30T16:01:58Z</time>
      </trkpt>
      <trkpt lat="44.8708" lon="4.37439">
        <ele>880.978</ele>
        <time>2015-07-30T16:02:07Z</time>
      </trkpt>
      <trkpt lat="44.87062" lon="4.37461">
        <ele>879.229</ele>
        <time>2015-07-30T16:02:18Z</time>
      </trkpt>
      <trkpt lat="44.87057" lon="4.37466">
        <ele>877.044</ele>
        <time>2015-07-30T16:02:30Z</time>
      </trkpt>
      <trkpt lat="44.87041" lon="4.37493">
        <ele>876.592</ele>
        <time>2015-07-30T16:02:46Z</time>
      </trkpt>
      <trkpt lat="44.8703" lon="4.37513">
        <ele>876.188</ele>
        <time>2015-07-30T16:02:56Z</time>
      </trkpt>
      <trkpt lat="44.87021" lon="4.37531">
        <ele>876.51</ele>
        <time>2015-07-30T16:03:07Z</time>
      </trkpt>
      <trkpt lat="44.87007" lon="4.37552">
        <ele>875.033</ele>
        <time>2015-07-30T16:03:18Z</time>
      </trkpt>
      <trkpt lat="44.86999" lon="4.37566">
        <ele>873.643</ele>
        <time>2015-07-30T16:03:27Z</time>
      </trkpt>
      <trkpt lat="44.86985" lon="4.37583">
        <ele>871.522</ele>
        <time>2015-07-30T16:03:37Z</time>
      </trkpt>
      <trkpt lat="44.86971" lon="4.37599">
        <ele>870.517</ele>
        <time>2015-07-30T16:03:48Z</time>
      </trkpt>
      <trkpt lat="44.86963" lon="4.37606">
        <ele>870.174</ele>
        <time>2015-07-30T16:04:01Z</time>
      </trkpt>
      <trkpt lat="44.86958" lon="4.37617">
        <ele>870.599</ele>
        <time>2015-07-30T16:04:26Z</time>
      </trkpt>
      <trkpt lat="44.86948" lon="4.3764">
        <ele>871.569</ele>
        <time>2015-07-30T16:04:43Z</time>
      </trkpt>
      <trkpt lat="44.86944" lon="4.37646">
        <ele>871.278</ele>
        <time>2015-07-30T16:04:46Z</time>
      </trkpt>
      <trkpt lat="44.86932" lon="4.37655">
        <ele>870.298</ele>
        <time>2015-07-30T16:04:59Z</time>
      </trkpt>
      <trkpt lat="44.86928" lon="4.37655">
        <ele>868.9</ele>
        <time>2015-07-30T16:05:02Z</time>
      </trkpt>
      <trkpt lat="44.86921" lon="4.37654">
        <ele>867.849</ele>
        <time>2015-07-30T16:05:07Z</time>
      </trkpt>
      <trkpt lat="44.86917" lon="4.37651">
        <ele>867.547</ele>
        <time>2015-07-30T16:05:09Z</time>
      </trkpt>
      <trkpt lat="44.86909" lon="4.37646">
        <ele>867.706</ele>
        <time>2015-07-30T16:05:12Z</time>
      </trkpt>
      <trkpt lat="44.86896" lon="4.37642">
        <ele>868.974</ele>
        <time>2015-07-30T16:05:16Z</time>
      </trkpt>
      <trkpt lat="44.86894" lon="4.37641">
        <ele>868.575</ele>
        <time>2015-07-30T16:05:17Z</time>
      </trkpt>
      <trkpt lat="44.8687" lon="4.37629">
        <ele>868.829</ele>
        <time>2015-07-30T16:05:30Z</time>
      </trkpt>
      <trkpt lat="44.8685" lon="4.37606">
        <ele>865.65</ele>
        <time>2015-07-30T16:05:44Z</time>
      </trkpt>
      <trkpt lat="44.86838" lon="4.37586">
        <ele>863.066</ele>
        <time>2015-07-30T16:05:50Z</time>
      </trkpt>
      <trkpt lat="44.86825" lon="4.37567">
        <ele>861.066</ele>
        <time>2015-07-30T16:06:03Z</time>
      </trkpt>
      <trkpt lat="44.86819" lon="4.37557">
        <ele>859.737</ele>
        <time>2015-07-30T16:06:09Z</time>
      </trkpt>
      <trkpt lat="44.86803" lon="4.37537">
        <ele>856.466</ele>
        <time>2015-07-30T16:06:19Z</time>
      </trkpt>
      <trkpt lat="44.86796" lon="4.37512">
        <ele>854.695</ele>
        <time>2015-07-30T16:06:34Z</time>
      </trkpt>
      <trkpt lat="44.86785" lon="4.37488">
        <ele>851.144</ele>
        <time>2015-07-30T16:06:44Z</time>
      </trkpt>
      <trkpt lat="44.86784" lon="4.37483">
        <ele>850.528</ele>
        <time>2015-07-30T16:06:46Z</time>
      </trkpt>
      <trkpt lat="44.86784" lon="4.37481">
        <ele>850.003</ele>
        <time>2015-07-30T16:06:47Z</time>
      </trkpt>
      <trkpt lat="44.86779" lon="4.37466">
        <ele>848.52</ele>
        <time>2015-07-30T16:06:52Z</time>
      </trkpt>
      <trkpt lat="44.86775" lon="4.37437">
        <ele>846.99</ele>
        <time>2015-07-30T16:07:00Z</time>
      </trkpt>
      <trkpt lat="44.86769" lon="4.37406">
        <ele>844.765</ele>
        <time>2015-07-30T16:07:18Z</time>
      </trkpt>
      <trkpt lat="44.86768" lon="4.374">
        <ele>843.299</ele>
        <time>2015-07-30T16:07:21Z</time>
      </trkpt>
      <trkpt lat="44.86769" lon="4.37382">
        <ele>842.408</ele>
        <time>2015-07-30T16:07:27Z</time>
      </trkpt>
      <trkpt lat="44.86771" lon="4.37369">
        <ele>839.645</ele>
        <time>2015-07-30T16:07:32Z</time>
      </trkpt>
      <trkpt lat="44.86767" lon="4.37351">
        <ele>837.333</ele>
        <time>2015-07-30T16:07:46Z</time>
      </trkpt>
      <trkpt lat="44.86759" lon="4.37331">
        <ele>835.544</ele>
        <time>2015-07-30T16:08:00Z</time>
      </trkpt>
      <trkpt lat="44.86756" lon="4.37323">
        <ele>834.566</ele>
        <time>2015-07-30T16:08:11Z</time>
      </trkpt>
      <trkpt lat="44.86757" lon="4.37306">
        <ele>833.372</ele>
        <time>2015-07-30T16:08:18Z</time>
      </trkpt>
      <trkpt lat="44.8676" lon="4.37281">
        <ele>829.128</ele>
        <time>2015-07-30T16:08:29Z</time>
      </trkpt>
      <trkpt lat="44.8676" lon="4.37278">
        <ele>827.915</ele>
        <time>2015-07-30T16:08:37Z</time>
      </trkpt>
      <trkpt lat="44.86764" lon="4.37262">
        <ele>827.725</ele>
        <time>2015-07-30T16:08:43Z</time>
      </trkpt>
      <trkpt lat="44.8676" lon="4.37239">
        <ele>825.833</ele>
        <time>2015-07-30T16:08:49Z</time>
      </trkpt>
      <trkpt lat="44.86762" lon="4.37233">
        <ele>825.73</ele>
        <time>2015-07-30T16:08:53Z</time>
      </trkpt>
      <trkpt lat="44.86761" lon="4.37223">
        <ele>824.549</ele>
        <time>2015-07-30T16:08:56Z</time>
      </trkpt>
      <trkpt lat="44.86751" lon="4.37177">
        <ele>823.82</ele>
        <time>2015-07-30T16:09:09Z</time>
      </trkpt>
      <trkpt lat="44.86741" lon="4.37147">
        <ele>822.475</ele>
        <time>2015-07-30T16:09:25Z</time>
      </trkpt>
      <trkpt lat="44.86733" lon="4.37131">
        <ele>822.956</ele>
        <time>2015-07-30T16:09:38Z</time>
      </trkpt>
      <trkpt lat="44.86734" lon="4.37129">
        <ele>822.956</ele>
        <time>2015-07-30T16:09:39Z</time>
      </trkpt>
      <trkpt lat="44.86732" lon="4.37112">
        <ele>822.509</ele>
        <time>2015-07-30T16:09:50Z</time>
      </trkpt>
      <trkpt lat="44.86722" lon="4.37085">
        <ele>821.878</ele>
        <time>2015-07-30T16:10:07Z</time>
      </trkpt>
      <trkpt lat="44.86723" lon="4.37079">
        <ele>821.595</ele>
        <time>2015-07-30T16:10:11Z</time>
      </trkpt>
      <trkpt lat="44.86724" lon="4.37072">
        <ele>821.809</ele>
        <time>2015-07-30T16:10:15Z</time>
      </trkpt>
      <trkpt lat="44.86723" lon="4.37058">
        <ele>822.195</ele>
        <time>2015-07-30T16:10:28Z</time>
      </trkpt>
      <trkpt lat="44.86722" lon="4.37044">
        <ele>822.065</ele>
        <time>2015-07-30T16:10:41Z</time>
      </trkpt>
      <trkpt lat="44.86715" lon="4.37023">
        <ele>821.531</ele>
        <time>2015-07-30T16:10:49Z</time>
      </trkpt>
      <trkpt lat="44.86711" lon="4.37015">
        <ele>819.83</ele>
        <time>2015-07-30T16:10:54Z</time>
      </trkpt>
      <trkpt lat="44.86704" lon="4.37006">
        <ele>818.17</ele>
        <time>2015-07-30T16:11:00Z</time>
      </trkpt>
      <trkpt lat="44.86698" lon="4.36998">
        <ele>818.184</ele>
        <time>2015-07-30T16:11:08Z</time>
      </trkpt>
      <trkpt lat="44.86671" lon="4.3699">
        <ele>816.009</ele>
        <time>2015-07-30T16:11:21Z</time>
      </trkpt>
      <trkpt lat="44.8665" lon="4.36979">
        <ele>817.04</ele>
        <time>2015-07-30T16:11:36Z</time>
      </trkpt>
      <trkpt lat="44.86644" lon="4.36981">
        <ele>816.966</ele>
        <time>2015-07-30T16:11:38Z</time>
      </trkpt>
      <trkpt lat="44.86621" lon="4.36985">
        <ele>817.172</ele>
        <time>2015-07-30T16:11:47Z</time>
      </trkpt>
      <trkpt lat="44.866" lon="4.36988">
        <ele>816.487</ele>
        <time>2015-07-30T16:11:56Z</time>
      </trkpt>
      <trkpt lat="44.86562" lon="4.36962">
        <ele>814.215</ele>
        <time>2015-07-30T16:12:08Z</time>
      </trkpt>
      <trkpt lat="44.8655" lon="4.36952">
        <ele>813.874</ele>
        <time>2015-07-30T16:12:13Z</time>
      </trkpt>
      <trkpt lat="44.86543" lon="4.36953">
        <ele>813.599</ele>
        <time>2015-07-30T16:12:17Z</time>
      </trkpt>
      <trkpt lat="44.86492" lon="4.36951">
        <ele>813.906</ele>
        <time>2015-07-30T16:12:34Z</time>
      </trkpt>
      <trkpt lat="44.86483" lon="4.36952">
        <ele>813.147</ele>
        <time>2015-07-30T16:12:37Z</time>
      </trkpt>
      <trkpt lat="44.86478" lon="4.36945">
        <ele>811.845</ele>
        <time>2015-07-30T16:12:49Z</time>
      </trkpt>
      <trkpt lat="44.86477" lon="4.36945">
        <ele>811.197</ele>
        <time>2015-07-30T16:12:56Z</time>
      </trkpt>
      <trkpt lat="44.86474" lon="4.36947">
        <ele>810.875</ele>
        <time>2015-07-30T16:13:00Z</time>
      </trkpt>
      <trkpt lat="44.86465" lon="4.36981">
        <ele>808.293</ele>
        <time>2015-07-30T16:13:13Z</time>
      </trkpt>
      <trkpt lat="44.86456" lon="4.3701">
        <ele>807.535</ele>
        <time>2015-07-30T16:13:25Z</time>
      </trkpt>
      <trkpt lat="44.86445" lon="4.37039">
        <ele>807.004</ele>
        <time>2015-07-30T16:13:39Z</time>
      </trkpt>
      <trkpt lat="44.86433" lon="4.37061">
        <ele>804.964</ele>
        <time>2015-07-30T16:13:49Z</time>
      </trkpt>
      <trkpt lat="44.86427" lon="4.37078">
        <ele>801.656</ele>
        <time>2015-07-30T16:13:58Z</time>
      </trkpt>
      <trkpt lat="44.86423" lon="4.37107">
        <ele>800.361</ele>
        <time>2015-07-30T16:14:07Z</time>
      </trkpt>
      <trkpt lat="44.86416" lon="4.37132">
        <ele>797.928</ele>
        <time>2015-07-30T16:14:13Z</time>
      </trkpt>
      <trkpt lat="44.86413" lon="4.37144">
        <ele>797.336</ele>
        <time>2015-07-30T16:14:15Z</time>
      </trkpt>
      <trkpt lat="44.86391" lon="4.3718">
        <ele>793.6</ele>
        <time>2015-07-30T16:14:23Z</time>
      </trkpt>
      <trkpt lat="44.86387" lon="4.37186">
        <ele>793.6</ele>
        <time>2015-07-30T16:14:24Z</time>
      </trkpt>
      <trkpt lat="44.86375" lon="4.37215">
        <ele>792.299</ele>
        <time>2015-07-30T16:14:29Z</time>
      </trkpt>
      <trkpt lat="44.8636" lon="4.37245">
        <ele>790.365</ele>
        <time>2015-07-30T16:14:36Z</time>
      </trkpt>
      <trkpt lat="44.86358" lon="4.37255">
        <ele>789.057</ele>
        <time>2015-07-30T16:14:38Z</time>
      </trkpt>
      <trkpt lat="44.86354" lon="4.37262">
        <ele>787.649</ele>
        <time>2015-07-30T16:14:40Z</time>
      </trkpt>
      <trkpt lat="44.86352" lon="4.3727">
        <ele>785.326</ele>
        <time>2015-07-30T16:14:43Z</time>
      </trkpt>
      <trkpt lat="44.8635" lon="4.3727">
        <ele>784.296</ele>
        <time>2015-07-30T16:14:50Z</time>
      </trkpt>
      <trkpt lat="44.86352" lon="4.37278">
        <ele>784.346</ele>
        <time>2015-07-30T16:14:54Z</time>
      </trkpt>
      <trkpt lat="44.8638" lon="4.37329">
        <ele>781.233</ele>
        <time>2015-07-30T16:15:04Z</time>
      </trkpt>
      <trkpt lat="44.8638" lon="4.37334">
        <ele>780.229</ele>
        <time>2015-07-30T16:15:05Z</time>
      </trkpt>
      <trkpt lat="44.8638" lon="4.37347">
        <ele>778.662</ele>
        <time>2015-07-30T16:15:07Z</time>
      </trkpt>
      <trkpt lat="44.86371" lon="4.37372">
        <ele>775.867</ele>
        <time>2015-07-30T16:15:11Z</time>
      </trkpt>
      <trkpt lat="44.8636" lon="4.37414">
        <ele>774.747</ele>
        <time>2015-07-30T16:15:20Z</time>
      </trkpt>
      <trkpt lat="44.86361" lon="4.37431">
        <ele>775.243</ele>
        <time>2015-07-30T16:15:24Z</time>
      </trkpt>
      <trkpt lat="44.86364" lon="4.37452">
        <ele>774.921</ele>
        <time>2015-07-30T16:15:27Z</time>
      </trkpt>
      <trkpt lat="44.86363" lon="4.37509">
        <ele>773.645</ele>
        <time>2015-07-30T16:15:33Z</time>
      </trkpt>
      <trkpt lat="44.86359" lon="4.37559">
        <ele>775.193</ele>
        <time>2015-07-30T16:15:45Z</time>
      </trkpt>
      <trkpt lat="44.86359" lon="4.37602">
        <ele>777.624</ele>
        <time>2015-07-30T16:15:56Z</time>
      </trkpt>
      <trkpt lat="44.8636" lon="4.37627">
        <ele>778.713</ele>
        <time>2015-07-30T16:16:03Z</time>
      </trkpt>
      <trkpt lat="44.86361" lon="4.37632">
        <ele>779.128</ele>
        <time>2015-07-30T16:16:08Z</time>
      </trkpt>
      <trkpt lat="44.8636" lon="4.37578">
        <ele>777.661</ele>
        <time>2015-07-30T16:16:20Z</time>
      </trkpt>
      <trkpt lat="44.86359" lon="4.37537">
        <ele>775.756</ele>
        <time>2015-07-30T16:16:26Z</time>
      </trkpt>
      <trkpt lat="44.86365" lon="4.37488">
        <ele>773.011</ele>
        <time>2015-07-30T16:16:35Z</time>
      </trkpt>
      <trkpt lat="44.86364" lon="4.37481">
        <ele>772.411</ele>
        <time>2015-07-30T16:16:50Z</time>
      </trkpt>
      <trkpt lat="44.86363" lon="4.37455">
        <ele>772.738</ele>
        <time>2015-07-30T16:17:03Z</time>
      </trkpt>
      <trkpt lat="44.86361" lon="4.37446">
        <ele>773.373</ele>
        <time>2015-07-30T16:17:06Z</time>
      </trkpt>
      <trkpt lat="44.8636" lon="4.37427">
        <ele>775.513</ele>
        <time>2015-07-30T16:17:12Z</time>
      </trkpt>
      <trkpt lat="44.86359" lon="4.37414">
        <ele>775.798</ele>
        <time>2015-07-30T16:17:18Z</time>
      </trkpt>
      <trkpt lat="44.86359" lon="4.37407">
        <ele>776.107</ele>
        <time>2015-07-30T16:17:20Z</time>
      </trkpt>
      <trkpt lat="44.86368" lon="4.37362">
        <ele>774.607</ele>
        <time>2015-07-30T16:17:28Z</time>
      </trkpt>
      <trkpt lat="44.86376" lon="4.37338">
        <ele>777.862</ele>
        <time>2015-07-30T16:17:38Z</time>
      </trkpt>
      <trkpt lat="44.86377" lon="4.37336">
        <ele>777.862</ele>
        <time>2015-07-30T16:17:39Z</time>
      </trkpt>
      <trkpt lat="44.86374" lon="4.37317">
        <ele>781.344</ele>
        <time>2015-07-30T16:17:47Z</time>
      </trkpt>
      <trkpt lat="44.86357" lon="4.37281">
        <ele>783.524</ele>
        <time>2015-07-30T16:18:04Z</time>
      </trkpt>
      <trkpt lat="44.86352" lon="4.3727">
        <ele>784.462</ele>
        <time>2015-07-30T16:18:10Z</time>
      </trkpt>
      <trkpt lat="44.86355" lon="4.3727">
        <ele>783.989</ele>
        <time>2015-07-30T16:18:27Z</time>
      </trkpt>
      <trkpt lat="44.86354" lon="4.37269">
        <ele>785.012</ele>
        <time>2015-07-30T16:19:15Z</time>
      </trkpt>
      <trkpt lat="44.8636" lon="4.37249">
        <ele>786.888</ele>
        <time>2015-07-30T16:19:24Z</time>
      </trkpt>
      <trkpt lat="44.86366" lon="4.37226">
        <ele>790.22</ele>
        <time>2015-07-30T16:19:36Z</time>
      </trkpt>
      <trkpt lat="44.86376" lon="4.37209">
        <ele>791.243</ele>
        <time>2015-07-30T16:19:45Z</time>
      </trkpt>
      <trkpt lat="44.86398" lon="4.37168">
        <ele>793.195</ele>
        <time>2015-07-30T16:20:05Z</time>
      </trkpt>
      <trkpt lat="44.86404" lon="4.37161">
        <ele>794.411</ele>
        <time>2015-07-30T16:20:10Z</time>
      </trkpt>
      <trkpt lat="44.8642" lon="4.37125">
        <ele>797.169</ele>
        <time>2015-07-30T16:20:27Z</time>
      </trkpt>
      <trkpt lat="44.86424" lon="4.37109">
        <ele>799.558</ele>
        <time>2015-07-30T16:20:41Z</time>
      </trkpt>
      <trkpt lat="44.86425" lon="4.37108">
        <ele>799.767</ele>
        <time>2015-07-30T16:20:55Z</time>
      </trkpt>
      <trkpt lat="44.86425" lon="4.37107">
        <ele>799.973</ele>
        <time>2015-07-30T16:21:04Z</time>
      </trkpt>
      <trkpt lat="44.86428" lon="4.37077">
        <ele>801.91</ele>
        <time>2015-07-30T16:21:19Z</time>
      </trkpt>
      <trkpt lat="44.86433" lon="4.37061">
        <ele>803.701</ele>
        <time>2015-07-30T16:21:32Z</time>
      </trkpt>
      <trkpt lat="44.8644" lon="4.37046">
        <ele>805.762</ele>
        <time>2015-07-30T16:21:49Z</time>
      </trkpt>
      <trkpt lat="44.86441" lon="4.37041">
        <ele>806.661</ele>
        <time>2015-07-30T16:22:01Z</time>
      </trkpt>
      <trkpt lat="44.86441" lon="4.37041">
        <ele>806.505</ele>
        <time>2015-07-30T16:22:05Z</time>
      </trkpt>
      <trkpt lat="44.86444" lon="4.37027">
        <ele>807.21</ele>
        <time>2015-07-30T16:22:16Z</time>
      </trkpt>
      <trkpt lat="44.86451" lon="4.37005">
        <ele>807.279</ele>
        <time>2015-07-30T16:22:27Z</time>
      </trkpt>
      <trkpt lat="44.86467" lon="4.36957">
        <ele>808.809</ele>
        <time>2015-07-30T16:22:44Z</time>
      </trkpt>
      <trkpt lat="44.86469" lon="4.36953">
        <ele>808.98</ele>
        <time>2015-07-30T16:22:54Z</time>
      </trkpt>
      <trkpt lat="44.86479" lon="4.36945">
        <ele>811.438</ele>
        <time>2015-07-30T16:23:08Z</time>
      </trkpt>
      <trkpt lat="44.86484" lon="4.36949">
        <ele>813.364</ele>
        <time>2015-07-30T16:23:15Z</time>
      </trkpt>
      <trkpt lat="44.86485" lon="4.36949">
        <ele>812.352</ele>
        <time>2015-07-30T16:23:33Z</time>
      </trkpt>
      <trkpt lat="44.86485" lon="4.36949">
        <ele>812.664</ele>
        <time>2015-07-30T16:23:38Z</time>
      </trkpt>
      <trkpt lat="44.86494" lon="4.36948">
        <ele>813.19</ele>
        <time>2015-07-30T16:23:44Z</time>
      </trkpt>
      <trkpt lat="44.86528" lon="4.36951">
        <ele>814.236</ele>
        <time>2015-07-30T16:24:03Z</time>
      </trkpt>
      <trkpt lat="44.86556" lon="4.36954">
        <ele>813.253</ele>
        <time>2015-07-30T16:24:13Z</time>
      </trkpt>
      <trkpt lat="44.8657" lon="4.36976">
        <ele>814.41</ele>
        <time>2015-07-30T16:24:27Z</time>
      </trkpt>
      <trkpt lat="44.86575" lon="4.36982">
        <ele>814.804</ele>
        <time>2015-07-30T16:24:31Z</time>
      </trkpt>
      <trkpt lat="44.86592" lon="4.36989">
        <ele>815.927</ele>
        <time>2015-07-30T16:24:40Z</time>
      </trkpt>
      <trkpt lat="44.866" lon="4.36985">
        <ele>815.552</ele>
        <time>2015-07-30T16:24:45Z</time>
      </trkpt>
      <trkpt lat="44.8661" lon="4.36983">
        <ele>815.903</ele>
        <time>2015-07-30T16:24:53Z</time>
      </trkpt>
      <trkpt lat="44.86628" lon="4.36982">
        <ele>816.094</ele>
        <time>2015-07-30T16:25:06Z</time>
      </trkpt>
      <trkpt lat="44.86648" lon="4.36983">
        <ele>815.932</ele>
        <time>2015-07-30T16:25:21Z</time>
      </trkpt>
      <trkpt lat="44.86673" lon="4.36984">
        <ele>815.462</ele>
        <time>2015-07-30T16:25:33Z</time>
      </trkpt>
      <trkpt lat="44.86688" lon="4.36995">
        <ele>816.604</ele>
        <time>2015-07-30T16:25:46Z</time>
      </trkpt>
      <trkpt lat="44.86703" lon="4.37009">
        <ele>818.342</ele>
        <time>2015-07-30T16:26:04Z</time>
      </trkpt>
      <trkpt lat="44.8671" lon="4.37023">
        <ele>819.782</ele>
        <time>2015-07-30T16:26:19Z</time>
      </trkpt>
      <trkpt lat="44.86714" lon="4.37032">
        <ele>820.424</ele>
        <time>2015-07-30T16:26:32Z</time>
      </trkpt>
      <trkpt lat="44.86716" lon="4.37038">
        <ele>820.667</ele>
        <time>2015-07-30T16:26:36Z</time>
      </trkpt>
      <trkpt lat="44.86715" lon="4.37049">
        <ele>820.813</ele>
        <time>2015-07-30T16:26:41Z</time>
      </trkpt>
      <trkpt lat="44.86716" lon="4.37065">
        <ele>821.09</ele>
        <time>2015-07-30T16:26:47Z</time>
      </trkpt>
      <trkpt lat="44.86719" lon="4.37074">
        <ele>820.496</ele>
        <time>2015-07-30T16:26:51Z</time>
      </trkpt>
      <trkpt lat="44.86721" lon="4.37088">
        <ele>820.461</ele>
        <time>2015-07-30T16:26:55Z</time>
      </trkpt>
      <trkpt lat="44.86723" lon="4.37107">
        <ele>820.3</ele>
        <time>2015-07-30T16:27:06Z</time>
      </trkpt>
      <trkpt lat="44.86726" lon="4.37113">
        <ele>820.736</ele>
        <time>2015-07-30T16:27:13Z</time>
      </trkpt>
      <trkpt lat="44.86733" lon="4.37125">
        <ele>820.969</ele>
        <time>2015-07-30T16:27:27Z</time>
      </trkpt>
      <trkpt lat="44.86736" lon="4.37141">
        <ele>820.736</ele>
        <time>2015-07-30T16:27:41Z</time>
      </trkpt>
      <trkpt lat="44.8674" lon="4.37155">
        <ele>820.868</ele>
        <time>2015-07-30T16:27:57Z</time>
      </trkpt>
      <trkpt lat="44.8674" lon="4.37157">
        <ele>821.125</ele>
        <time>2015-07-30T16:27:58Z</time>
      </trkpt>
      <trkpt lat="44.86746" lon="4.37178">
        <ele>821.066</ele>
        <time>2015-07-30T16:28:08Z</time>
      </trkpt>
      <trkpt lat="44.86746" lon="4.37187">
        <ele>821.759</ele>
        <time>2015-07-30T16:28:12Z</time>
      </trkpt>
      <trkpt lat="44.86747" lon="4.37208">
        <ele>822.665</ele>
        <time>2015-07-30T16:28:22Z</time>
      </trkpt>
      <trkpt lat="44.86752" lon="4.37249">
        <ele>825.376</ele>
        <time>2015-07-30T16:28:37Z</time>
      </trkpt>
      <trkpt lat="44.86756" lon="4.3727">
        <ele>827.3</ele>
        <time>2015-07-30T16:28:50Z</time>
      </trkpt>
      <trkpt lat="44.86755" lon="4.37272">
        <ele>827.844</ele>
        <time>2015-07-30T16:28:51Z</time>
      </trkpt>
      <trkpt lat="44.86751" lon="4.37288">
        <ele>829.641</ele>
        <time>2015-07-30T16:29:07Z</time>
      </trkpt>
      <trkpt lat="44.86748" lon="4.37312">
        <ele>832.645</ele>
        <time>2015-07-30T16:29:26Z</time>
      </trkpt>
      <trkpt lat="44.8675" lon="4.37327">
        <ele>835.126</ele>
        <time>2015-07-30T16:29:43Z</time>
      </trkpt>
      <trkpt lat="44.86744" lon="4.37349">
        <ele>837.237</ele>
        <time>2015-07-30T16:30:02Z</time>
      </trkpt>
      <trkpt lat="44.86744" lon="4.37352">
        <ele>837.684</ele>
        <time>2015-07-30T16:30:05Z</time>
      </trkpt>
      <trkpt lat="44.86742" lon="4.37365">
        <ele>839.914</ele>
        <time>2015-07-30T16:30:17Z</time>
      </trkpt>
      <trkpt lat="44.86745" lon="4.37383">
        <ele>841.637</ele>
        <time>2015-07-30T16:30:33Z</time>
      </trkpt>
      <trkpt lat="44.86747" lon="4.37399">
        <ele>844.396</ele>
        <time>2015-07-30T16:30:50Z</time>
      </trkpt>
      <trkpt lat="44.86752" lon="4.37411">
        <ele>844.662</ele>
        <time>2015-07-30T16:31:04Z</time>
      </trkpt>
      <trkpt lat="44.86762" lon="4.37429">
        <ele>845.291</ele>
        <time>2015-07-30T16:31:19Z</time>
      </trkpt>
      <trkpt lat="44.86763" lon="4.37433">
        <ele>845.579</ele>
        <time>2015-07-30T16:31:21Z</time>
      </trkpt>
      <trkpt lat="44.86763" lon="4.37452">
        <ele>847.434</ele>
        <time>2015-07-30T16:31:34Z</time>
      </trkpt>
      <trkpt lat="44.86768" lon="4.37471">
        <ele>848.798</ele>
        <time>2015-07-30T16:31:50Z</time>
      </trkpt>
      <trkpt lat="44.86776" lon="4.37484">
        <ele>849.714</ele>
        <time>2015-07-30T16:32:07Z</time>
      </trkpt>
      <trkpt lat="44.86782" lon="4.37497">
        <ele>851.68</ele>
        <time>2015-07-30T16:32:21Z</time>
      </trkpt>
      <trkpt lat="44.86787" lon="4.37507">
        <ele>853.424</ele>
        <time>2015-07-30T16:32:34Z</time>
      </trkpt>
      <trkpt lat="44.86792" lon="4.37514">
        <ele>855.187</ele>
        <time>2015-07-30T16:32:49Z</time>
      </trkpt>
      <trkpt lat="44.86797" lon="4.37527">
        <ele>856.516</ele>
        <time>2015-07-30T16:33:00Z</time>
      </trkpt>
      <trkpt lat="44.86805" lon="4.37554">
        <ele>858.923</ele>
        <time>2015-07-30T16:33:23Z</time>
      </trkpt>
      <trkpt lat="44.86819" lon="4.37566">
        <ele>860.749</ele>
        <time>2015-07-30T16:33:40Z</time>
      </trkpt>
      <trkpt lat="44.86827" lon="4.37574">
        <ele>862.709</ele>
        <time>2015-07-30T16:34:00Z</time>
      </trkpt>
      <trkpt lat="44.86839" lon="4.3759">
        <ele>864.533</ele>
        <time>2015-07-30T16:34:13Z</time>
      </trkpt>
      <trkpt lat="44.86852" lon="4.37617">
        <ele>867.133</ele>
        <time>2015-07-30T16:34:27Z</time>
      </trkpt>
      <trkpt lat="44.86854" lon="4.37619">
        <ele>867.109</ele>
        <time>2015-07-30T16:34:34Z</time>
      </trkpt>
      <trkpt lat="44.86857" lon="4.37627">
        <ele>866.75</ele>
        <time>2015-07-30T16:34:37Z</time>
      </trkpt>
      <trkpt lat="44.8687" lon="4.37649">
        <ele>867.193</ele>
        <time>2015-07-30T16:34:48Z</time>
      </trkpt>
      <trkpt lat="44.86899" lon="4.37657">
        <ele>867.215</ele>
        <time>2015-07-30T16:35:01Z</time>
      </trkpt>
      <trkpt lat="44.86919" lon="4.37662">
        <ele>869.003</ele>
        <time>2015-07-30T16:35:22Z</time>
      </trkpt>
      <trkpt lat="44.86931" lon="4.37658">
        <ele>870.993</ele>
        <time>2015-07-30T16:35:38Z</time>
      </trkpt>
      <trkpt lat="44.86933" lon="4.37652">
        <ele>871.054</ele>
        <time>2015-07-30T16:35:42Z</time>
      </trkpt>
      <trkpt lat="44.86936" lon="4.37645">
        <ele>870.393</ele>
        <time>2015-07-30T16:35:45Z</time>
      </trkpt>
      <trkpt lat="44.86947" lon="4.37621">
        <ele>869.302</ele>
        <time>2015-07-30T16:35:53Z</time>
      </trkpt>
      <trkpt lat="44.86952" lon="4.37609">
        <ele>868.499</ele>
        <time>2015-07-30T16:36:04Z</time>
      </trkpt>
      <trkpt lat="44.86955" lon="4.37602">
        <ele>868.644</ele>
        <time>2015-07-30T16:36:20Z</time>
      </trkpt>
      <trkpt lat="44.86972" lon="4.37584">
        <ele>870.237</ele>
        <time>2015-07-30T16:36:34Z</time>
      </trkpt>
      <trkpt lat="44.86974" lon="4.37582">
        <ele>869.997</ele>
        <time>2015-07-30T16:36:37Z</time>
      </trkpt>
      <trkpt lat="44.86983" lon="4.37575">
        <ele>871.014</ele>
        <time>2015-07-30T16:36:44Z</time>
      </trkpt>
      <trkpt lat="44.86991" lon="4.3757">
        <ele>872.333</ele>
        <time>2015-07-30T16:36:57Z</time>
      </trkpt>
      <trkpt lat="44.86997" lon="4.37569">
        <ele>873.091</ele>
        <time>2015-07-30T16:37:16Z</time>
      </trkpt>
      <trkpt lat="44.87006" lon="4.37549">
        <ele>873.744</ele>
        <time>2015-07-30T16:37:28Z</time>
      </trkpt>
      <trkpt lat="44.87016" lon="4.37536">
        <ele>874.513</ele>
        <time>2015-07-30T16:37:35Z</time>
      </trkpt>
      <trkpt lat="44.87027" lon="4.37511">
        <ele>874.47</ele>
        <time>2015-07-30T16:37:46Z</time>
      </trkpt>
      <trkpt lat="44.87044" lon="4.37478">
        <ele>874.542</ele>
        <time>2015-07-30T16:37:58Z</time>
      </trkpt>
      <trkpt lat="44.87052" lon="4.37471">
        <ele>875.062</ele>
        <time>2015-07-30T16:38:08Z</time>
      </trkpt>
      <trkpt lat="44.87061" lon="4.37454">
        <ele>877.181</ele>
        <time>2015-07-30T16:38:24Z</time>
      </trkpt>
      <trkpt lat="44.87077" lon="4.37444">
        <ele>878.32</ele>
        <time>2015-07-30T16:38:35Z</time>
      </trkpt>
      <trkpt lat="44.87087" lon="4.37439">
        <ele>880.273</ele>
        <time>2015-07-30T16:38:50Z</time>
      </trkpt>
      <trkpt lat="44.87099" lon="4.37437">
        <ele>880.371</ele>
        <time>2015-07-30T16:39:02Z</time>
      </trkpt>
      <trkpt lat="44.87125" lon="4.37443">
        <ele>878.941</ele>
        <time>2015-07-30T16:39:14Z</time>
      </trkpt>
      <trkpt lat="44.87144" lon="4.37447">
        <ele>878.228</ele>
        <time>2015-07-30T16:39:27Z</time>
      </trkpt>
      <trkpt lat="44.87146" lon="4.3745">
        <ele>878.429</ele>
        <time>2015-07-30T16:39:28Z</time>
      </trkpt>
      <trkpt lat="44.8716" lon="4.37452">
        <ele>879.102</ele>
        <time>2015-07-30T16:39:42Z</time>
      </trkpt>
      <trkpt lat="44.8717" lon="4.37448">
        <ele>878.212</ele>
        <time>2015-07-30T16:39:56Z</time>
      </trkpt>
      <trkpt lat="44.87188" lon="4.37443">
        <ele>877.765</ele>
        <time>2015-07-30T16:40:11Z</time>
      </trkpt>
      <trkpt lat="44.87216" lon="4.37426">
        <ele>875.39</ele>
        <time>2015-07-30T16:40:24Z</time>
      </trkpt>
      <trkpt lat="44.87241" lon="4.37428">
        <ele>876.394</ele>
        <time>2015-07-30T16:40:37Z</time>
      </trkpt>
      <trkpt lat="44.87263" lon="4.37437">
        <ele>876.159</ele>
        <time>2015-07-30T16:40:50Z</time>
      </trkpt>
      <trkpt lat="44.8728" lon="4.37441">
        <ele>877.533</ele>
        <time>2015-07-30T16:41:17Z</time>
      </trkpt>
      <trkpt lat="44.87282" lon="4.37442">
        <ele>877.797</ele>
        <time>2015-07-30T16:41:19Z</time>
      </trkpt>
      <trkpt lat="44.87294" lon="4.37452">
        <ele>878.777</ele>
        <time>2015-07-30T16:41:26Z</time>
      </trkpt>
      <trkpt lat="44.87299" lon="4.37457">
        <ele>880.069</ele>
        <time>2015-07-30T16:41:30Z</time>
      </trkpt>
      <trkpt lat="44.8731" lon="4.37476">
        <ele>880.685</ele>
        <time>2015-07-30T16:41:40Z</time>
      </trkpt>
      <trkpt lat="44.87311" lon="4.37477">
        <ele>880.685</ele>
        <time>2015-07-30T16:41:41Z</time>
      </trkpt>
      <trkpt lat="44.87332" lon="4.37516">
        <ele>881.491</ele>
        <time>2015-07-30T16:41:55Z</time>
      </trkpt>
      <trkpt lat="44.87337" lon="4.37529">
        <ele>881.327</ele>
        <time>2015-07-30T16:41:59Z</time>
      </trkpt>
      <trkpt lat="44.87343" lon="4.37557">
        <ele>880.484</ele>
        <time>2015-07-30T16:42:07Z</time>
      </trkpt>
      <trkpt lat="44.87351" lon="4.376">
        <ele>878.27</ele>
        <time>2015-07-30T16:42:17Z</time>
      </trkpt>
      <trkpt lat="44.87358" lon="4.37614">
        <ele>876.634</ele>
        <time>2015-07-30T16:42:21Z</time>
      </trkpt>
      <trkpt lat="44.87369" lon="4.37646">
        <ele>873.244</ele>
        <time>2015-07-30T16:42:29Z</time>
      </trkpt>
      <trkpt lat="44.87376" lon="4.37662">
        <ele>870.932</ele>
        <time>2015-07-30T16:42:35Z</time>
      </trkpt>
      <trkpt lat="44.87377" lon="4.3767">
        <ele>870.483</ele>
        <time>2015-07-30T16:42:37Z</time>
      </trkpt>
      <trkpt lat="44.87376" lon="4.37689">
        <ele>869.667</ele>
        <time>2015-07-30T16:43:07Z</time>
      </trkpt>
      <trkpt lat="44.87384" lon="4.37697">
        <ele>869.812</ele>
        <time>2015-07-30T16:48:12Z</time>
      </trkpt>
      <trkpt lat="44.87387" lon="4.37725">
        <ele>868.507</ele>
        <time>2015-07-30T16:48:17Z</time>
      </trkpt>
      <trkpt lat="44.87391" lon="4.37738">
        <ele>866.882</ele>
        <time>2015-07-30T16:48:20Z</time>
      </trkpt>
      <trkpt lat="44.87398" lon="4.37762">
        <ele>864.147</ele>
        <time>2015-07-30T16:48:27Z</time>
      </trkpt>
      <trkpt lat="44.87411" lon="4.37814">
        <ele>861.362</ele>
        <time>2015-07-30T16:48:36Z</time>
      </trkpt>
      <trkpt lat="44.87422" lon="4.37856">
        <ele>857.66</ele>
        <time>2015-07-30T16:48:42Z</time>
      </trkpt>
      <trkpt lat="44.87424" lon="4.37862">
        <ele>857.66</ele>
        <time>2015-07-30T16:48:43Z</time>
      </trkpt>
      <trkpt lat="44.87428" lon="4.3787">
        <ele>857.142</ele>
        <time>2015-07-30T16:48:44Z</time>
      </trkpt>
      <trkpt lat="44.87429" lon="4.37885">
        <ele>856.595</ele>
        <time>2015-07-30T16:48:46Z</time>
      </trkpt>
      <trkpt lat="44.87436" lon="4.379">
        <ele>854.745</ele>
        <time>2015-07-30T16:48:49Z</time>
      </trkpt>
      <trkpt lat="44.8744" lon="4.37926">
        <ele>852.613</ele>
        <time>2015-07-30T16:48:55Z</time>
      </trkpt>
      <trkpt lat="44.87446" lon="4.37947">
        <ele>851.268</ele>
        <time>2015-07-30T16:49:00Z</time>
      </trkpt>
      <trkpt lat="44.87449" lon="4.37964">
        <ele>849.429</ele>
        <time>2015-07-30T16:49:04Z</time>
      </trkpt>
      <trkpt lat="44.87461" lon="4.38017">
        <ele>846.105</ele>
        <time>2015-07-30T16:49:12Z</time>
      </trkpt>
      <trkpt lat="44.87476" lon="4.38084">
        <ele>843.368</ele>
        <time>2015-07-30T16:49:20Z</time>
      </trkpt>
      <trkpt lat="44.87479" lon="4.38102">
        <ele>842.81</ele>
        <time>2015-07-30T16:49:22Z</time>
      </trkpt>
      <trkpt lat="44.87492" lon="4.38167">
        <ele>839.869</ele>
        <time>2015-07-30T16:49:28Z</time>
      </trkpt>
      <trkpt lat="44.87499" lon="4.38211">
        <ele>836.587</ele>
        <time>2015-07-30T16:49:33Z</time>
      </trkpt>
      <trkpt lat="44.87499" lon="4.38218">
        <ele>836.587</ele>
        <time>2015-07-30T16:49:34Z</time>
      </trkpt>
      <trkpt lat="44.87494" lon="4.38254">
        <ele>833.361</ele>
        <time>2015-07-30T16:49:40Z</time>
      </trkpt>
      <trkpt lat="44.87487" lon="4.38236">
        <ele>831.411</ele>
        <time>2015-07-30T16:49:48Z</time>
      </trkpt>
      <trkpt lat="44.87491" lon="4.38209">
        <ele>829.876</ele>
        <time>2015-07-30T16:49:54Z</time>
      </trkpt>
      <trkpt lat="44.87497" lon="4.38196">
        <ele>828.161</ele>
        <time>2015-07-30T16:49:57Z</time>
      </trkpt>
      <trkpt lat="44.87505" lon="4.38186">
        <ele>827.712</ele>
        <time>2015-07-30T16:49:59Z</time>
      </trkpt>
      <trkpt lat="44.87552" lon="4.3814">
        <ele>825.268</ele>
        <time>2015-07-30T16:50:06Z</time>
      </trkpt>
      <trkpt lat="44.87571" lon="4.3811">
        <ele>822.322</ele>
        <time>2015-07-30T16:50:11Z</time>
      </trkpt>
      <trkpt lat="44.87584" lon="4.38079">
        <ele>819.941</ele>
        <time>2015-07-30T16:50:20Z</time>
      </trkpt>
      <trkpt lat="44.87585" lon="4.38076">
        <ele>819.655</ele>
        <time>2015-07-30T16:50:21Z</time>
      </trkpt>
      <trkpt lat="44.87582" lon="4.38056">
        <ele>818.168</ele>
        <time>2015-07-30T16:50:25Z</time>
      </trkpt>
      <trkpt lat="44.87577" lon="4.3803">
        <ele>817.264</ele>
        <time>2015-07-30T16:50:29Z</time>
      </trkpt>
      <trkpt lat="44.87564" lon="4.37956">
        <ele>813.412</ele>
        <time>2015-07-30T16:50:40Z</time>
      </trkpt>
      <trkpt lat="44.87559" lon="4.37891">
        <ele>809.755</ele>
        <time>2015-07-30T16:50:49Z</time>
      </trkpt>
      <trkpt lat="44.87574" lon="4.37857">
        <ele>807.807</ele>
        <time>2015-07-30T16:50:55Z</time>
      </trkpt>
      <trkpt lat="44.8758" lon="4.37845">
        <ele>806.476</ele>
        <time>2015-07-30T16:50:57Z</time>
      </trkpt>
      <trkpt lat="44.87585" lon="4.37809">
        <ele>804.082</ele>
        <time>2015-07-30T16:51:02Z</time>
      </trkpt>
      <trkpt lat="44.87593" lon="4.37791">
        <ele>803.001</ele>
        <time>2015-07-30T16:51:04Z</time>
      </trkpt>
      <trkpt lat="44.87603" lon="4.37772">
        <ele>801.902</ele>
        <time>2015-07-30T16:51:07Z</time>
      </trkpt>
      <trkpt lat="44.8761" lon="4.37784">
        <ele>800.871</ele>
        <time>2015-07-30T16:51:11Z</time>
      </trkpt>
      <trkpt lat="44.87607" lon="4.37806">
        <ele>799.738</ele>
        <time>2015-07-30T16:51:16Z</time>
      </trkpt>
      <trkpt lat="44.876" lon="4.37842">
        <ele>798.044</ele>
        <time>2015-07-30T16:51:22Z</time>
      </trkpt>
      <trkpt lat="44.87616" lon="4.37878">
        <ele>794.974</ele>
        <time>2015-07-30T16:51:27Z</time>
      </trkpt>
      <trkpt lat="44.87623" lon="4.37908">
        <ele>792.424</ele>
        <time>2015-07-30T16:51:32Z</time>
      </trkpt>
      <trkpt lat="44.87632" lon="4.37925">
        <ele>790.31</ele>
        <time>2015-07-30T16:51:36Z</time>
      </trkpt>
      <trkpt lat="44.87636" lon="4.37933">
        <ele>789.012</ele>
        <time>2015-07-30T16:51:38Z</time>
      </trkpt>
      <trkpt lat="44.87671" lon="4.37942">
        <ele>786.14</ele>
        <time>2015-07-30T16:51:45Z</time>
      </trkpt>
      <trkpt lat="44.87691" lon="4.3796">
        <ele>784.782</ele>
        <time>2015-07-30T16:51:49Z</time>
      </trkpt>
      <trkpt lat="44.87705" lon="4.38005">
        <ele>781.004</ele>
        <time>2015-07-30T16:51:56Z</time>
      </trkpt>
      <trkpt lat="44.87712" lon="4.38037">
        <ele>778.467</ele>
        <time>2015-07-30T16:52:00Z</time>
      </trkpt>
      <trkpt lat="44.87716" lon="4.38059">
        <ele>776.049</ele>
        <time>2015-07-30T16:52:03Z</time>
      </trkpt>
      <trkpt lat="44.87724" lon="4.3807">
        <ele>774.345</ele>
        <time>2015-07-30T16:52:06Z</time>
      </trkpt>
      <trkpt lat="44.87727" lon="4.38072">
        <ele>773.909</ele>
        <time>2015-07-30T16:52:07Z</time>
      </trkpt>
      <trkpt lat="44.87741" lon="4.38085">
        <ele>773.835</ele>
        <time>2015-07-30T16:52:10Z</time>
      </trkpt>
      <trkpt lat="44.87761" lon="4.38093">
        <ele>772.382</ele>
        <time>2015-07-30T16:52:14Z</time>
      </trkpt>
      <trkpt lat="44.87768" lon="4.38096">
        <ele>771.296</ele>
        <time>2015-07-30T16:52:16Z</time>
      </trkpt>
      <trkpt lat="44.87794" lon="4.38098">
        <ele>770.112</ele>
        <time>2015-07-30T16:52:20Z</time>
      </trkpt>
      <trkpt lat="44.87799" lon="4.38098">
        <ele>768.701</ele>
        <time>2015-07-30T16:52:32Z</time>
      </trkpt>
      <trkpt lat="44.87799" lon="4.38098">
        <ele>768.558</ele>
        <time>2015-07-30T16:52:41Z</time>
      </trkpt>
      <trkpt lat="44.87798" lon="4.38093">
        <ele>768.709</ele>
        <time>2015-07-30T16:52:43Z</time>
      </trkpt>
      <trkpt lat="44.87799" lon="4.38092">
        <ele>767.697</ele>
        <time>2015-07-30T16:52:45Z</time>
      </trkpt>
      <trkpt lat="44.87798" lon="4.3809">
        <ele>766.854</ele>
        <time>2015-07-30T16:52:48Z</time>
      </trkpt>
      <trkpt lat="44.87796" lon="4.38089">
        <ele>766.051</ele>
        <time>2015-07-30T16:52:50Z</time>
      </trkpt>
      <trkpt lat="44.87796" lon="4.38083">
        <ele>765.668</ele>
        <time>2015-07-30T16:52:53Z</time>
      </trkpt>
      <trkpt lat="44.87795" lon="4.38079">
        <ele>764.412</ele>
        <time>2015-07-30T16:52:55Z</time>
      </trkpt>
      <trkpt lat="44.87803" lon="4.38063">
        <ele>762.47</ele>
        <time>2015-07-30T16:53:00Z</time>
      </trkpt>
      <trkpt lat="44.8781" lon="4.3805">
        <ele>759.22</ele>
        <time>2015-07-30T16:53:06Z</time>
      </trkpt>
      <trkpt lat="44.8781" lon="4.38048">
        <ele>759.22</ele>
        <time>2015-07-30T16:53:07Z</time>
      </trkpt>
      <trkpt lat="44.87815" lon="4.38037">
        <ele>757.273</ele>
        <time>2015-07-30T16:53:18Z</time>
      </trkpt>
      <trkpt lat="44.87816" lon="4.38032">
        <ele>755.418</ele>
        <time>2015-07-30T16:53:21Z</time>
      </trkpt>
      <trkpt lat="44.87814" lon="4.38019">
        <ele>752.07</ele>
        <time>2015-07-30T16:53:31Z</time>
      </trkpt>
      <trkpt lat="44.87823" lon="4.38">
        <ele>748.448</ele>
        <time>2015-07-30T16:53:42Z</time>
      </trkpt>
      <trkpt lat="44.87828" lon="4.37989">
        <ele>747.835</ele>
        <time>2015-07-30T16:53:44Z</time>
      </trkpt>
      <trkpt lat="44.8783" lon="4.37987">
        <ele>746.614</ele>
        <time>2015-07-30T16:53:46Z</time>
      </trkpt>
      <trkpt lat="44.87835" lon="4.37975">
        <ele>743.715</ele>
        <time>2015-07-30T16:53:51Z</time>
      </trkpt>
      <trkpt lat="44.87835" lon="4.37974">
        <ele>742.376</ele>
        <time>2015-07-30T16:53:53Z</time>
      </trkpt>
      <trkpt lat="44.87838" lon="4.3797">
        <ele>739.332</ele>
        <time>2015-07-30T16:54:04Z</time>
      </trkpt>
      <trkpt lat="44.8785" lon="4.37964">
        <ele>736.478</ele>
        <time>2015-07-30T16:54:28Z</time>
      </trkpt>
      <trkpt lat="44.87862" lon="4.37963">
        <ele>733.378</ele>
        <time>2015-07-30T16:54:38Z</time>
      </trkpt>
      <trkpt lat="44.87873" lon="4.37963">
        <ele>732.398</ele>
        <time>2015-07-30T16:54:44Z</time>
      </trkpt>
      <trkpt lat="44.87879" lon="4.37958">
        <ele>730.694</ele>
        <time>2015-07-30T16:54:48Z</time>
      </trkpt>
      <trkpt lat="44.87891" lon="4.3795">
        <ele>728.741</ele>
        <time>2015-07-30T16:55:00Z</time>
      </trkpt>
      <trkpt lat="44.87891" lon="4.37939">
        <ele>725.972</ele>
        <time>2015-07-30T16:55:19Z</time>
      </trkpt>
      <trkpt lat="44.87901" lon="4.37931">
        <ele>722.941</ele>
        <time>2015-07-30T16:55:32Z</time>
      </trkpt>
      <trkpt lat="44.87922" lon="4.37901">
        <ele>720.164</ele>
        <time>2015-07-30T16:55:51Z</time>
      </trkpt>
      <trkpt lat="44.87929" lon="4.37897">
        <ele>716.975</ele>
        <time>2015-07-30T16:56:02Z</time>
      </trkpt>
      <trkpt lat="44.87939" lon="4.37893">
        <ele>716.478</ele>
        <time>2015-07-30T16:56:12Z</time>
      </trkpt>
      <trkpt lat="44.87948" lon="4.37885">
        <ele>715.247</ele>
        <time>2015-07-30T16:56:27Z</time>
      </trkpt>
      <trkpt lat="44.87955" lon="4.37876">
        <ele>715.45</ele>
        <time>2015-07-30T16:56:48Z</time>
      </trkpt>
      <trkpt lat="44.87965" lon="4.37876">
        <ele>715.471</ele>
        <time>2015-07-30T16:58:01Z</time>
      </trkpt>
      <trkpt lat="44.87999" lon="4.37869">
        <ele>713.767</ele>
        <time>2015-07-30T16:58:15Z</time>
      </trkpt>
      <trkpt lat="44.88005" lon="4.37868">
        <ele>712.789</ele>
        <time>2015-07-30T16:58:18Z</time>
      </trkpt>
      <trkpt lat="44.88026" lon="4.37857">
        <ele>709.254</ele>
        <time>2015-07-30T16:58:28Z</time>
      </trkpt>
      <trkpt lat="44.88042" lon="4.37841">
        <ele>706.184</ele>
        <time>2015-07-30T16:58:36Z</time>
      </trkpt>
      <trkpt lat="44.88058" lon="4.37825">
        <ele>702.413</ele>
        <time>2015-07-30T16:58:44Z</time>
      </trkpt>
      <trkpt lat="44.8806" lon="4.37824">
        <ele>702.413</ele>
        <time>2015-07-30T16:58:45Z</time>
      </trkpt>
      <trkpt lat="44.88069" lon="4.37807">
        <ele>699.858</ele>
        <time>2015-07-30T16:58:52Z</time>
      </trkpt>
      <trkpt lat="44.88082" lon="4.37785">
        <ele>697.99</ele>
        <time>2015-07-30T16:58:59Z</time>
      </trkpt>
      <trkpt lat="44.88103" lon="4.37762">
        <ele>694.378</ele>
        <time>2015-07-30T16:59:09Z</time>
      </trkpt>
      <trkpt lat="44.88109" lon="4.3776">
        <ele>694.378</ele>
        <time>2015-07-30T16:59:10Z</time>
      </trkpt>
      <trkpt lat="44.88133" lon="4.37746">
        <ele>689.204</ele>
        <time>2015-07-30T16:59:20Z</time>
      </trkpt>
      <trkpt lat="44.88139" lon="4.37742">
        <ele>688.562</ele>
        <time>2015-07-30T16:59:22Z</time>
      </trkpt>
      <trkpt lat="44.88144" lon="4.37737">
        <ele>687.035</ele>
        <time>2015-07-30T16:59:24Z</time>
      </trkpt>
      <trkpt lat="44.88162" lon="4.37727">
        <ele>684.852</ele>
        <time>2015-07-30T16:59:29Z</time>
      </trkpt>
      <trkpt lat="44.88168" lon="4.37722">
        <ele>683.47</ele>
        <time>2015-07-30T16:59:31Z</time>
      </trkpt>
      <trkpt lat="44.8818" lon="4.37714">
        <ele>681.047</ele>
        <time>2015-07-30T16:59:36Z</time>
      </trkpt>
      <trkpt lat="44.88198" lon="4.37704">
        <ele>677.583</ele>
        <time>2015-07-30T16:59:42Z</time>
      </trkpt>
      <trkpt lat="44.88202" lon="4.37705">
        <ele>677.583</ele>
        <time>2015-07-30T16:59:43Z</time>
      </trkpt>
      <trkpt lat="44.88219" lon="4.37707">
        <ele>675.731</ele>
        <time>2015-07-30T16:59:46Z</time>
      </trkpt>
      <trkpt lat="44.88243" lon="4.37715">
        <ele>673.91</ele>
        <time>2015-07-30T16:59:50Z</time>
      </trkpt>
      <trkpt lat="44.88254" lon="4.37721">
        <ele>672.28</ele>
        <time>2015-07-30T16:59:52Z</time>
      </trkpt>
      <trkpt lat="44.88259" lon="4.37723">
        <ele>670.742</ele>
        <time>2015-07-30T16:59:53Z</time>
      </trkpt>
      <trkpt lat="44.8827" lon="4.37731">
        <ele>667.117</ele>
        <time>2015-07-30T16:59:56Z</time>
      </trkpt>
      <trkpt lat="44.88274" lon="4.37733">
        <ele>667.117</ele>
        <time>2015-07-30T16:59:57Z</time>
      </trkpt>
      <trkpt lat="44.88283" lon="4.3774">
        <ele>665.545</ele>
        <time>2015-07-30T16:59:59Z</time>
      </trkpt>
      <trkpt lat="44.88299" lon="4.37756">
        <ele>662.279</ele>
        <time>2015-07-30T17:00:02Z</time>
      </trkpt>
      <trkpt lat="44.88323" lon="4.3776">
        <ele>657.406</ele>
        <time>2015-07-30T17:00:05Z</time>
      </trkpt>
      <trkpt lat="44.88331" lon="4.3776">
        <ele>657.406</ele>
        <time>2015-07-30T17:00:06Z</time>
      </trkpt>
      <trkpt lat="44.88345" lon="4.37758">
        <ele>655.348</ele>
        <time>2015-07-30T17:00:08Z</time>
      </trkpt>
      <trkpt lat="44.8836" lon="4.37755">
        <ele>654.32</ele>
        <time>2015-07-30T17:00:10Z</time>
      </trkpt>
      <trkpt lat="44.88383" lon="4.37744">
        <ele>652.87</ele>
        <time>2015-07-30T17:00:13Z</time>
      </trkpt>
      <trkpt lat="44.884" lon="4.37739">
        <ele>652.045</ele>
        <time>2015-07-30T17:00:15Z</time>
      </trkpt>
      <trkpt lat="44.88428" lon="4.37722">
        <ele>649.321</ele>
        <time>2015-07-30T17:00:19Z</time>
      </trkpt>
      <trkpt lat="44.88514" lon="4.37715">
        <ele>645.949</ele>
        <time>2015-07-30T17:05:06Z</time>
      </trkpt>
    </trkseg>
  </trk>
</gpx>